createdAt,value
2023-01-28T00:00:57.147Z,2.86
2023-01-28T00:03:25.541Z,2.84
2023-01-28T00:05:54.377Z,2.84
2023-01-28T00:08:22.135Z,2.82
2023-01-28T00:10:49.943Z,2.81
2023-01-28T00:13:17.710Z,2.79
2023-01-28T00:15:45.915Z,2.79
2023-01-28T00:18:14.156Z,2.78
2023-01-28T00:20:41.832Z,2.77
2023-01-28T00:23:09.543Z,2.78
2023-01-28T00:25:37.364Z,2.77
2023-01-28T00:28:05.419Z,2.75
2023-01-28T00:30:33.181Z,2.73
2023-01-28T00:33:00.955Z,2.70
2023-01-28T00:35:30.364Z,2.70
2023-01-28T00:37:58.056Z,2.71
2023-01-28T00:40:27.578Z,2.70
2023-01-28T00:42:55.294Z,2.70
2023-01-28T00:45:22.993Z,2.71
2023-01-28T00:47:50.668Z,2.70
2023-01-28T00:50:18.342Z,2.67
2023-01-28T00:52:46.663Z,2.66
2023-01-28T00:55:14.587Z,2.68
2023-01-28T00:57:42.562Z,2.67
2023-01-28T01:00:10.228Z,2.66
2023-01-28T01:02:40.903Z,2.66
2023-01-28T01:05:09.734Z,2.64
2023-01-28T01:07:42.908Z,2.65
2023-01-28T01:10:10.535Z,2.64
2023-01-28T01:12:38.204Z,2.64
2023-01-28T01:15:09.227Z,2.64
2023-01-28T01:17:38.676Z,2.63
2023-01-28T01:20:06.499Z,2.64
2023-01-28T01:22:34.193Z,2.63
2023-01-28T01:25:01.852Z,2.63
2023-01-28T01:27:29.479Z,2.65
2023-01-28T01:29:57.694Z,2.63
2023-01-28T01:32:25.359Z,2.63
2023-01-28T01:34:53.061Z,2.62
2023-01-28T01:37:20.759Z,2.62
2023-01-28T01:39:49.159Z,2.60
2023-01-28T01:42:17.210Z,2.59
2023-01-28T01:44:45.425Z,2.57
2023-01-28T01:47:13.029Z,2.58
2023-01-28T01:49:40.726Z,2.57
2023-01-28T01:52:08.421Z,2.55
2023-01-28T01:54:36.470Z,2.54
2023-01-28T01:57:04.079Z,2.54
2023-01-28T01:59:31.753Z,2.54
2023-01-28T02:01:59.416Z,2.53
2023-01-28T02:04:27.097Z,2.50
2023-01-28T02:06:57.159Z,2.50
2023-01-28T02:09:24.762Z,2.50
2023-01-28T02:11:52.383Z,2.49
2023-01-28T02:14:30.517Z,2.50
2023-01-28T02:16:59.204Z,2.50
2023-01-28T02:19:26.853Z,2.49
2023-01-28T02:21:54.537Z,2.48
2023-01-28T02:24:22.209Z,2.48
2023-01-28T02:26:49.926Z,2.47
2023-01-28T02:29:17.876Z,2.46
2023-01-28T02:31:45.622Z,2.46
2023-01-28T02:34:13.340Z,2.43
2023-01-28T02:36:40.949Z,2.41
2023-01-28T02:39:08.578Z,2.41
2023-01-28T02:41:36.592Z,2.40
2023-01-28T02:44:04.363Z,2.39
2023-01-28T02:46:49.270Z,2.38
2023-01-28T02:49:16.901Z,2.37
2023-01-28T02:51:44.897Z,2.35
2023-01-28T02:54:11.537Z,2.35
2023-01-28T02:56:39.159Z,2.34
2023-01-28T02:59:26.760Z,2.31
2023-01-28T03:01:58.806Z,2.29
2023-01-28T03:04:26.420Z,2.27
2023-01-28T03:06:54.479Z,2.25
2023-01-28T03:09:27.007Z,2.23
2023-01-28T03:12:12.746Z,2.24
2023-01-28T03:14:57.597Z,2.24
2023-01-28T03:17:42.624Z,2.24
2023-01-28T03:20:27.543Z,2.25
2023-01-28T03:23:12.893Z,2.25
2023-01-28T03:25:57.836Z,2.25
2023-01-28T03:28:42.992Z,2.24
2023-01-28T03:31:28.052Z,2.23
2023-01-28T03:34:13.322Z,2.22
2023-01-28T03:36:50.732Z,2.21
2023-01-28T03:39:18.392Z,2.22
2023-01-28T03:41:45.991Z,2.21
2023-01-28T03:44:31.586Z,2.20
2023-01-28T03:46:59.354Z,2.18
2023-01-28T03:49:27.393Z,2.18
2023-01-28T03:51:55.031Z,2.17
2023-01-28T03:54:22.650Z,2.17
2023-01-28T03:56:50.585Z,2.17
2023-01-28T03:59:18.479Z,2.17
2023-01-28T04:01:46.128Z,2.17
2023-01-28T04:04:23.124Z,2.13
2023-01-28T04:06:50.737Z,2.09
2023-01-28T04:09:18.358Z,2.08
2023-01-28T04:11:46.455Z,2.09
2023-01-28T04:14:14.565Z,2.09
2023-01-28T04:16:42.181Z,2.08
2023-01-28T04:19:10.131Z,2.10
2023-01-28T04:21:37.769Z,2.09
2023-01-28T04:24:05.436Z,2.08
2023-01-28T04:26:33.097Z,2.07
2023-01-28T04:29:00.728Z,2.09
2023-01-28T04:31:28.734Z,2.10
2023-01-28T04:33:57.926Z,2.10
2023-01-28T04:36:25.522Z,2.10
2023-01-28T04:38:53.107Z,2.08
2023-01-28T04:41:20.796Z,2.07
2023-01-28T04:43:49.848Z,2.09
2023-01-28T04:46:17.685Z,2.09
2023-01-28T04:48:45.476Z,2.08
2023-01-28T04:51:13.111Z,2.08
2023-01-28T04:53:40.743Z,2.08
2023-01-28T04:56:09.092Z,2.06
2023-01-28T04:58:36.677Z,2.05
2023-01-28T05:01:04.300Z,2.04
2023-01-28T05:03:31.977Z,2.04
2023-01-28T05:05:59.711Z,2.01
2023-01-28T05:08:27.707Z,2.01
2023-01-28T05:10:55.534Z,2.01
2023-01-28T05:13:23.163Z,2.00
2023-01-28T05:15:50.752Z,1.99
2023-01-28T05:18:18.765Z,1.98
2023-01-28T05:20:46.750Z,1.95
2023-01-28T05:23:14.572Z,1.96
2023-01-28T05:25:42.233Z,1.94
2023-01-28T05:28:09.832Z,1.94
2023-01-28T05:30:37.438Z,1.94
2023-01-28T05:33:05.422Z,1.95
2023-01-28T05:35:33.215Z,1.95
2023-01-28T05:38:00.848Z,1.94
2023-01-28T05:40:28.927Z,1.94
2023-01-28T05:42:56.520Z,1.94
2023-01-28T05:45:24.629Z,1.96
2023-01-28T05:47:52.305Z,1.96
2023-01-28T05:50:19.907Z,1.95
2023-01-28T05:52:47.541Z,1.93
2023-01-28T05:55:15.211Z,1.90
2023-01-28T05:57:44.959Z,1.86
2023-01-28T06:00:13.373Z,1.83
2023-01-28T06:02:41.523Z,1.81
2023-01-28T06:05:09.181Z,1.81
2023-01-28T06:07:36.815Z,1.79
2023-01-28T06:10:04.842Z,1.78
2023-01-28T06:12:32.472Z,1.79
2023-01-28T06:15:00.103Z,1.80
2023-01-28T06:17:27.776Z,1.80
2023-01-28T06:19:55.358Z,1.80
2023-01-28T06:22:23.349Z,1.79
2023-01-28T06:24:50.984Z,1.78
2023-01-28T06:27:18.571Z,1.77
2023-01-28T06:29:46.173Z,1.76
2023-01-28T06:32:13.908Z,1.77
2023-01-28T06:34:42.514Z,1.77
2023-01-28T06:37:10.110Z,1.76
2023-01-28T06:39:37.756Z,1.76
2023-01-28T06:42:05.407Z,1.78
2023-01-28T06:44:33.032Z,1.75
2023-01-28T06:47:01.499Z,1.76
2023-01-28T06:49:29.266Z,1.76
2023-01-28T06:51:56.920Z,1.78
2023-01-28T06:54:24.591Z,1.77
2023-01-28T06:56:52.216Z,1.77
2023-01-28T06:59:20.168Z,1.77
2023-01-28T07:01:47.884Z,1.76
2023-01-28T07:04:15.535Z,1.74
2023-01-28T07:06:43.266Z,1.72
2023-01-28T07:09:11.730Z,1.70
2023-01-28T07:11:39.747Z,1.70
2023-01-28T07:14:07.661Z,1.70
2023-01-28T07:16:35.366Z,1.68
2023-01-28T07:19:03.014Z,1.68
2023-01-28T07:21:30.599Z,1.66
2023-01-28T07:23:58.645Z,1.67
2023-01-28T07:26:26.794Z,1.66
2023-01-28T07:28:54.375Z,1.68
2023-01-28T07:31:22.586Z,1.68
2023-01-28T07:33:50.260Z,1.68
2023-01-28T07:36:18.269Z,1.66
2023-01-28T07:38:45.981Z,1.68
2023-01-28T07:41:13.631Z,1.69
2023-01-28T07:43:41.247Z,1.69
2023-01-28T07:46:08.926Z,1.70
2023-01-28T07:48:37.427Z,1.69
2023-01-28T07:51:05.305Z,1.70
2023-01-28T07:53:33.035Z,1.71
2023-01-28T07:56:00.924Z,1.73
2023-01-28T07:58:28.579Z,1.76
2023-01-28T08:00:56.623Z,1.78
2023-01-28T08:03:24.499Z,1.78
2023-01-28T08:05:52.204Z,1.80
2023-01-28T08:08:19.984Z,1.81
2023-01-28T08:10:47.632Z,1.84
2023-01-28T08:13:15.647Z,1.84
2023-01-28T08:15:43.372Z,1.84
2023-01-28T08:18:13.144Z,1.86
2023-01-28T08:20:41.103Z,1.89
2023-01-28T08:23:08.781Z,1.91
2023-01-28T08:25:36.862Z,1.94
2023-01-28T08:28:04.679Z,1.97
2023-01-28T08:30:32.541Z,2.00
2023-01-28T08:33:00.283Z,2.03
2023-01-28T08:35:28.523Z,2.04
2023-01-28T08:37:56.732Z,2.03
2023-01-28T08:40:24.639Z,2.05
2023-01-28T08:42:52.585Z,2.06
2023-01-28T08:45:20.368Z,2.07
2023-01-28T08:47:48.161Z,2.11
2023-01-28T08:50:16.234Z,2.12
2023-01-28T08:52:44.821Z,2.14
2023-01-28T08:55:12.677Z,2.19
2023-01-28T08:57:40.700Z,2.22
2023-01-28T09:00:08.589Z,2.21
2023-01-28T09:02:36.576Z,2.21
2023-01-28T09:05:04.753Z,2.21
2023-01-28T09:07:32.599Z,2.21
2023-01-28T09:10:00.409Z,2.22
2023-01-28T09:12:28.140Z,2.23
2023-01-28T09:14:55.900Z,2.20
2023-01-28T09:17:23.826Z,2.20
2023-01-28T09:19:52.257Z,2.22
2023-01-28T09:22:20.080Z,2.24
2023-01-28T09:24:47.917Z,2.26
2023-01-28T09:27:16.068Z,2.26
2023-01-28T09:29:44.395Z,2.26
2023-01-28T09:32:12.140Z,2.26
2023-01-28T09:34:40.148Z,2.23
2023-01-28T09:37:07.992Z,2.21
2023-01-28T09:39:35.853Z,2.18
2023-01-28T09:42:05.798Z,2.19
2023-01-28T09:44:33.649Z,2.22
2023-01-28T09:47:01.905Z,2.27
2023-01-28T09:49:29.896Z,2.29
2023-01-28T09:51:58.089Z,2.30
2023-01-28T09:54:26.012Z,2.29
2023-01-28T09:56:53.850Z,2.26
2023-01-28T09:59:21.672Z,2.21
2023-01-28T10:01:49.757Z,2.18
2023-01-28T10:04:17.907Z,2.16
2023-01-28T10:06:45.958Z,2.17
2023-01-28T10:09:13.840Z,2.20
2023-01-28T10:11:41.633Z,2.22
2023-01-28T10:14:09.505Z,2.24
2023-01-28T10:16:37.743Z,2.27
2023-01-28T10:19:05.678Z,2.29
2023-01-28T10:21:33.670Z,2.30
2023-01-28T10:24:01.668Z,2.34
2023-01-28T10:26:29.997Z,2.36
2023-01-28T10:28:58.692Z,2.43
2023-01-28T10:31:26.665Z,2.49
2023-01-28T10:33:54.543Z,2.55
2023-01-28T10:36:22.583Z,2.60
2023-01-28T10:38:50.495Z,2.64
2023-01-28T10:41:18.703Z,2.69
2023-01-28T10:43:46.949Z,2.73
2023-01-28T10:46:14.965Z,2.76
2023-01-28T10:48:43.221Z,2.79
2023-01-28T10:51:11.334Z,2.81
2023-01-28T10:53:39.723Z,2.82
2023-01-28T10:56:08.123Z,2.82
2023-01-28T10:58:36.061Z,2.78
2023-01-28T11:01:03.919Z,2.76
2023-01-28T11:03:32.333Z,2.75
2023-01-28T11:06:01.015Z,2.74
2023-01-28T11:08:29.199Z,2.76
2023-01-28T11:11:01.206Z,2.76
2023-01-28T11:13:29.121Z,2.79
2023-01-28T11:15:56.993Z,2.83
2023-01-28T11:18:25.765Z,2.87
2023-01-28T11:20:53.948Z,2.86
2023-01-28T11:23:21.799Z,2.85
2023-01-28T11:25:50.006Z,2.84
2023-01-28T11:28:17.815Z,2.85
2023-01-28T11:30:46.048Z,2.85
2023-01-28T11:33:15.386Z,2.84
2023-01-28T11:35:43.241Z,2.84
2023-01-28T11:38:11.009Z,2.83
2023-01-28T11:40:39.001Z,2.83
2023-01-28T11:43:07.164Z,2.81
2023-01-28T11:45:35.251Z,2.77
2023-01-28T11:48:03.281Z,2.71
2023-01-28T11:50:31.133Z,2.67
2023-01-28T11:53:07.670Z,2.68
2023-01-28T11:55:36.671Z,2.72
2023-01-28T11:58:04.780Z,2.74
2023-01-28T12:00:33.050Z,2.73
2023-01-28T12:03:01.192Z,2.70
2023-01-28T12:05:29.020Z,2.70
2023-01-28T12:07:57.507Z,2.72
2023-01-28T12:10:25.600Z,2.74
2023-01-28T12:12:53.370Z,2.79
2023-01-28T12:15:21.878Z,2.84
2023-01-28T12:17:49.762Z,2.89
2023-01-28T12:20:18.384Z,2.91
2023-01-28T12:22:46.478Z,2.97
2023-01-28T12:25:14.564Z,2.99
2023-01-28T12:27:42.658Z,2.99
2023-01-28T12:30:10.575Z,2.98
2023-01-28T12:32:40.332Z,2.97
2023-01-28T12:35:08.441Z,2.98
2023-01-28T12:37:36.734Z,3.06
2023-01-28T12:40:04.813Z,3.14
2023-01-28T12:42:32.632Z,3.23
2023-01-28T12:45:00.834Z,3.34
2023-01-28T12:47:28.820Z,3.52
2023-01-28T12:49:57.450Z,3.91
2023-01-28T12:52:25.413Z,4.45
2023-01-28T12:54:53.561Z,4.90
2023-01-28T12:57:22.353Z,5.21
2023-01-28T12:59:50.666Z,5.48
2023-01-28T13:02:19.038Z,5.76
2023-01-28T13:04:46.989Z,5.91
2023-01-28T13:07:15.023Z,5.93
2023-01-28T13:09:44.121Z,5.89
2023-01-28T13:12:13.778Z,5.84
2023-01-28T13:14:41.779Z,5.76
2023-01-28T13:17:09.905Z,5.77
2023-01-28T13:19:38.029Z,5.81
2023-01-28T13:22:06.305Z,5.89
2023-01-28T13:24:34.458Z,5.90
2023-01-28T13:27:02.388Z,5.89
2023-01-28T13:29:30.701Z,5.69
2023-01-28T13:31:58.698Z,5.65
2023-01-28T13:34:26.737Z,5.63
2023-01-28T13:36:54.727Z,5.63
2023-01-28T13:39:22.623Z,5.51
2023-01-28T13:41:50.974Z,5.51
2023-01-28T13:44:18.909Z,5.33
2023-01-28T13:46:47.817Z,5.12
2023-01-28T13:49:15.706Z,4.92
2023-01-28T13:51:43.570Z,4.70
2023-01-28T13:54:11.615Z,4.44
2023-01-28T13:56:39.479Z,4.17
2023-01-28T13:59:07.801Z,4.02
2023-01-28T14:01:35.941Z,4.04
2023-01-28T14:04:04.234Z,4.07
2023-01-28T14:06:32.109Z,4.13
2023-01-28T14:09:00.186Z,4.21
2023-01-28T14:11:28.024Z,4.38
2023-01-28T14:13:55.964Z,4.47
2023-01-28T14:16:23.966Z,4.67
2023-01-28T14:18:52.021Z,4.82
2023-01-28T14:21:19.895Z,4.93
2023-01-28T14:23:49.310Z,5.05
2023-01-28T14:26:18.125Z,5.20
2023-01-28T14:28:46.079Z,5.45
2023-01-28T14:31:14.257Z,5.73
2023-01-28T14:33:42.237Z,6.04
2023-01-28T14:36:10.567Z,6.29
2023-01-28T14:38:38.523Z,6.46
2023-01-28T14:41:06.333Z,6.44
2023-01-28T14:43:34.232Z,6.45
2023-01-28T14:46:04.030Z,6.61
2023-01-28T14:48:35.326Z,6.90
2023-01-28T14:51:03.371Z,7.21
2023-01-28T14:53:31.275Z,7.46
2023-01-28T14:55:59.282Z,7.61
2023-01-28T14:58:27.347Z,7.75
2023-01-28T15:00:55.424Z,7.90
2023-01-28T15:03:25.123Z,7.96
2023-01-28T15:05:53.820Z,8.04
2023-01-28T15:08:21.837Z,8.13
2023-01-28T15:10:50.280Z,8.06
2023-01-28T15:13:18.929Z,7.45
2023-01-28T15:15:46.799Z,6.57
2023-01-28T15:18:14.630Z,5.81
2023-01-28T15:20:42.702Z,5.18
2023-01-28T15:23:10.447Z,4.65
2023-01-28T15:25:38.814Z,4.17
2023-01-28T15:28:06.875Z,3.79
2023-01-28T15:30:34.887Z,3.43
2023-01-28T15:33:03.179Z,3.14
2023-01-28T15:35:31.177Z,2.88
2023-01-28T15:37:59.847Z,2.65
2023-01-28T15:40:27.940Z,2.48
2023-01-28T15:42:56.024Z,2.29
2023-01-28T15:45:23.968Z,2.13
2023-01-28T15:47:51.929Z,1.98
2023-01-28T15:50:20.301Z,1.83
2023-01-28T15:52:48.151Z,1.69
2023-01-28T15:55:18.276Z,1.57
2023-01-28T15:57:47.412Z,1.46
2023-01-28T16:00:15.322Z,1.34
2023-01-28T16:02:43.829Z,1.24
2023-01-28T16:05:12.834Z,1.16
2023-01-28T16:07:40.819Z,1.08
2023-01-28T16:10:08.700Z,1.00
2023-01-28T16:12:36.717Z,0.93
2023-01-28T16:15:07.673Z,0.86
2023-01-28T16:17:35.508Z,0.82
2023-01-28T16:20:03.423Z,0.77
2023-01-28T16:22:31.276Z,0.72
2023-01-28T16:24:59.224Z,0.65
2023-01-28T16:27:28.062Z,0.58
2023-01-28T16:29:56.002Z,0.50
2023-01-28T16:32:23.865Z,0.44
2023-01-28T16:34:51.962Z,0.37
2023-01-28T16:37:20.514Z,0.31
2023-01-28T16:39:48.632Z,0.25
2023-01-28T16:42:16.632Z,0.20
2023-01-28T16:44:44.644Z,0.16
2023-01-28T16:47:12.492Z,0.12
2023-01-28T16:49:40.617Z,0.09
2023-01-28T16:52:09.308Z,0.07
2023-01-28T16:54:37.150Z,0.05
2023-01-28T16:57:05.182Z,0.00
2023-01-28T16:59:33.444Z,-0.05
2023-01-28T17:02:01.283Z,-0.08
2023-01-28T17:04:29.977Z,-0.10
2023-01-28T17:06:57.985Z,-0.14
2023-01-28T17:09:25.993Z,-0.17
2023-01-28T17:11:54.261Z,-0.21
2023-01-28T17:14:22.197Z,-0.25
2023-01-28T17:16:50.966Z,-0.27
2023-01-28T17:19:18.948Z,-0.32
2023-01-28T17:21:46.801Z,-0.33
2023-01-28T17:24:14.686Z,-0.33
2023-01-28T17:26:42.590Z,-0.35
2023-01-28T17:29:11.153Z,-0.39
2023-01-28T17:31:39.181Z,-0.41
2023-01-28T17:34:08.649Z,-0.45
2023-01-28T17:36:36.665Z,-0.50
2023-01-28T17:39:04.758Z,-0.53
2023-01-28T17:41:35.335Z,-0.56
2023-01-28T17:44:04.734Z,-0.58
2023-01-28T17:46:32.635Z,-0.61
2023-01-28T17:49:00.644Z,-0.62
2023-01-28T17:51:28.516Z,-0.63
2023-01-28T17:53:57.416Z,-0.65
2023-01-28T17:56:26.096Z,-0.67
2023-01-28T17:58:53.925Z,-0.74
2023-01-28T18:01:21.978Z,-0.77
2023-01-28T18:03:50.731Z,-0.78
2023-01-28T18:06:19.264Z,-0.80
2023-01-28T18:08:47.071Z,-0.83
2023-01-28T18:11:15.129Z,-0.87
2023-01-28T18:13:42.933Z,-0.92
2023-01-28T18:16:10.801Z,-0.95
2023-01-28T18:18:39.646Z,-0.97
2023-01-28T18:21:07.419Z,-1.00
2023-01-28T18:23:35.227Z,-1.03
2023-01-28T18:26:04.647Z,-1.05
2023-01-28T18:28:32.514Z,-1.06
2023-01-28T18:31:00.950Z,-1.09
2023-01-28T18:33:28.914Z,-1.11
2023-01-28T18:35:56.811Z,-1.14
2023-01-28T18:38:24.762Z,-1.16
2023-01-28T18:40:52.725Z,-1.18
2023-01-28T18:43:21.290Z,-1.17
2023-01-28T18:45:50.797Z,-1.18
2023-01-28T18:48:19.170Z,-1.19
2023-01-28T18:50:47.181Z,-1.21
2023-01-28T18:53:15.092Z,-1.23
2023-01-28T18:55:43.115Z,-1.26
2023-01-28T18:58:11.065Z,-1.28
2023-01-28T19:00:39.205Z,-1.30
2023-01-28T19:03:07.209Z,-1.33
2023-01-28T19:05:35.174Z,-1.33
2023-01-28T19:08:04.068Z,-1.33
2023-01-28T19:10:32.432Z,-1.33
2023-01-28T19:13:00.393Z,-1.32
2023-01-28T19:15:28.369Z,-1.33
2023-01-28T19:17:56.274Z,-1.33
2023-01-28T19:20:24.908Z,-1.34
2023-01-28T19:22:53.015Z,-1.35
2023-01-28T19:25:21.053Z,-1.37
2023-01-28T19:27:48.860Z,-1.38
2023-01-28T19:30:17.038Z,-1.38
2023-01-28T19:32:46.788Z,-1.35
2023-01-28T19:35:15.102Z,-1.35
2023-01-28T19:37:43.173Z,-1.37
2023-01-28T19:40:11.312Z,-1.38
2023-01-28T19:42:39.386Z,-1.42
2023-01-28T19:45:08.795Z,-1.45
2023-01-28T19:47:36.916Z,-1.47
2023-01-28T19:50:04.822Z,-1.51
2023-01-28T19:52:32.743Z,-1.55
2023-01-28T19:55:00.864Z,-1.59
2023-01-28T19:57:29.789Z,-1.61
2023-01-28T19:59:57.904Z,-1.63
2023-01-28T20:02:25.917Z,-1.66
2023-01-28T20:05:00.649Z,-1.68
2023-01-28T20:07:29.254Z,-1.67
2023-01-28T20:09:57.636Z,-1.69
2023-01-28T20:12:25.531Z,-1.68
2023-01-28T20:14:53.987Z,-1.70
2023-01-28T20:17:22.070Z,-1.71
2023-01-28T20:19:50.690Z,-1.72
2023-01-28T20:22:19.015Z,-1.73
2023-01-28T20:24:46.942Z,-1.73
2023-01-28T20:27:14.756Z,-1.72
2023-01-28T20:29:42.831Z,-1.73
2023-01-28T20:32:18.270Z,-1.73
2023-01-28T20:34:47.642Z,-1.74
2023-01-28T20:37:15.538Z,-1.78
2023-01-28T20:39:43.978Z,-1.80
2023-01-28T20:42:13.810Z,-1.83
2023-01-28T20:44:41.860Z,-1.84
2023-01-28T20:47:10.274Z,-1.84
2023-01-28T20:49:38.409Z,-1.84
2023-01-28T20:52:06.283Z,-1.82
2023-01-28T20:54:34.443Z,-1.81
2023-01-28T20:57:02.863Z,-1.82
2023-01-28T20:59:33.170Z,-1.84
2023-01-28T21:02:01.683Z,-1.84
2023-01-28T21:04:29.876Z,-1.83
2023-01-28T21:06:58.409Z,-1.81
2023-01-28T21:09:28.094Z,-1.82
2023-01-28T21:11:56.766Z,-1.84
2023-01-28T21:14:24.670Z,-1.85
2023-01-28T21:16:53.261Z,-1.86
2023-01-28T21:19:22.616Z,-1.86
2023-01-28T21:21:50.561Z,-1.87
2023-01-28T21:24:18.805Z,-1.86
2023-01-28T21:26:46.854Z,-1.86
2023-01-28T21:29:14.942Z,-1.86
2023-01-28T21:31:44.418Z,-1.85
2023-01-28T21:34:12.535Z,-1.87
2023-01-28T21:36:40.836Z,-1.87
2023-01-28T21:39:08.756Z,-1.88
2023-01-28T21:41:37.295Z,-1.88
2023-01-28T21:44:05.378Z,-1.88
2023-01-28T21:46:33.414Z,-1.88
2023-01-28T21:49:01.916Z,-1.88
2023-01-28T21:51:39.899Z,-1.90
2023-01-28T21:54:07.901Z,-1.91
2023-01-28T21:56:35.757Z,-1.92
2023-01-28T21:59:21.130Z,-1.95
2023-01-28T22:01:49.399Z,-2.00
2023-01-28T22:04:17.603Z,-2.03
2023-01-28T22:06:45.569Z,-2.05
2023-01-28T22:09:14.231Z,-2.06
2023-01-28T22:11:42.678Z,-2.08
2023-01-28T22:14:10.596Z,-2.11
2023-01-28T22:16:38.542Z,-2.16
2023-01-28T22:19:06.372Z,-2.19
2023-01-28T22:21:37.860Z,-2.21
2023-01-28T22:24:06.173Z,-2.26
2023-01-28T22:26:34.057Z,-2.29
2023-01-28T22:29:02.242Z,-2.31
2023-01-28T22:31:30.359Z,-2.34
2023-01-28T22:33:58.321Z,-2.36
2023-01-28T22:36:26.268Z,-2.39
2023-01-28T22:38:54.132Z,-2.42
2023-01-28T22:41:23.637Z,-2.43
2023-01-28T22:43:51.871Z,-2.45
2023-01-28T22:46:20.024Z,-2.48
2023-01-28T22:48:48.264Z,-2.49
2023-01-28T22:51:16.180Z,-2.52
2023-01-28T22:53:44.255Z,-2.55
2023-01-28T22:56:12.171Z,-2.57
2023-01-28T22:58:40.102Z,-2.59
2023-01-28T23:01:08.661Z,-2.61
2023-01-28T23:03:38.198Z,-2.64
2023-01-28T23:06:06.321Z,-2.63
2023-01-28T23:08:35.011Z,-2.65
2023-01-28T23:11:02.778Z,-2.66
2023-01-28T23:13:54.575Z,-2.66
2023-01-28T23:16:39.692Z,-2.67
2023-01-28T23:19:24.948Z,-2.69
2023-01-28T23:22:10.015Z,-2.69
2023-01-28T23:24:38.879Z,-2.69
2023-01-28T23:27:06.786Z,-2.68
2023-01-28T23:29:35.162Z,-2.71
2023-01-28T23:32:03.820Z,-2.73
2023-01-28T23:34:31.856Z,-2.75
2023-01-28T23:37:00.241Z,-2.78
2023-01-28T23:39:28.034Z,-2.78
2023-01-28T23:41:55.839Z,-2.78
2023-01-28T23:44:23.589Z,-2.81
2023-01-28T23:46:51.535Z,-2.83
2023-01-28T23:49:19.927Z,-2.84
2023-01-28T23:51:47.831Z,-2.85
2023-01-28T23:54:15.625Z,-2.87
2023-01-28T23:56:43.386Z,-2.86
2023-01-28T23:59:11.096Z,-2.85
